sensor_id;sensor_type;location;lat;lon;timestamp;pressure;altitude;pressure_sealevel;temperature;humidity
23659;BME280;12006;42.666;23.326;2023-03-13T00:02:10;8649.00;;;2.49;94.50
23659;BME280;12006;42.666;23.326;2023-03-13T00:04:35;8330.34;;;2.39;95.54
23659;BME280;12006;42.666;23.326;2023-03-13T00:07:00;8648.63;;;2.47;96.05
23659;BME280;12006;42.666;23.326;2023-03-13T00:09:26;8331.09;;;2.43;96.36
23659;BME280;12006;42.666;23.326;2023-03-13T00:11:51;8330.63;;;2.41;95.87
23659;BME280;12006;42.666;23.326;2023-03-13T00:14:17;8646.44;;;2.36;95.99
23659;BME280;12006;42.666;23.326;2023-03-13T00:16:42;8646.16;;;2.34;96.41
23659;BME280;12006;42.666;23.326;2023-03-13T00:19:08;8963.50;;;2.37;94.62
23659;BME280;12006;42.666;23.326;2023-03-13T00:21:34;9280.81;;;2.38;95.41
23659;BME280;12006;42.666;23.326;2023-03-13T00:24:02;8963.91;;;2.38;95.75
23659;BME280;12006;42.666;23.326;2023-03-13T00:26:28;8963.22;;;2.35;96.75
23659;BME280;12006;42.666;23.326;2023-03-13T00:28:54;8645.13;;;2.29;95.90
23659;BME280;12006;42.666;23.326;2023-03-13T00:31:28;8645.69;;;2.32;95.88
23659;BME280;12006;42.666;23.326;2023-03-13T00:33:56;8646.84;;;2.38;96.38
23659;BME280;12006;42.666;23.326;2023-03-13T00:36:25;8962.72;;;2.33;96.79
23659;BME280;12006;42.666;23.326;2023-03-13T00:38:52;8646.25;;;2.35;97.09
23659;BME280;12006;42.666;23.326;2023-03-13T00:41:20;8645.31;;;2.30;97.21
23659;BME280;12006;42.666;23.326;2023-03-13T00:43:47;8645.69;;;2.32;96.58
23659;BME280;12006;42.666;23.326;2023-03-13T00:46:15;8645.50;;;2.31;96.09
23659;BME280;12006;42.666;23.326;2023-03-13T00:48:40;8962.25;;;2.30;95.82
23659;BME280;12006;42.666;23.326;2023-03-13T00:51:06;8960.28;;;2.20;97.50
23659;BME280;12006;42.666;23.326;2023-03-13T00:53:32;9277.41;;;2.22;96.51
23659;BME280;12006;42.666;23.326;2023-03-13T00:56:06;8961.47;;;2.26;96.77
23659;BME280;12006;42.666;23.326;2023-03-13T00:58:34;8961.06;;;2.24;97.26
23659;BME280;12006;42.666;23.326;2023-03-13T01:03:40;8961.06;;;2.24;97.71
23659;BME280;12006;42.666;23.326;2023-03-13T01:06:10;9277.31;;;2.21;95.75
23659;BME280;12006;42.666;23.326;2023-03-13T01:08:37;9276.81;;;2.19;95.68
23659;BME280;12006;42.666;23.326;2023-03-13T01:11:09;9276.22;;;2.16;95.83
23659;BME280;12006;42.666;23.326;2023-03-13T01:13:35;10226.50;;;2.15;94.31
23659;BME280;12006;42.666;23.326;2023-03-13T01:16:06;10226.41;;;2.14;94.87
23659;BME280;12006;42.666;23.326;2023-03-13T01:18:33;10226.59;;;2.15;95.91
23659;BME280;12006;42.666;23.326;2023-03-13T01:20:59;9907.75;;;2.06;96.55
23659;BME280;12006;42.666;23.326;2023-03-13T01:23:25;9276.00;;;2.15;96.63
23659;BME280;12006;42.666;23.326;2023-03-13T01:25:50;8959.81;;;2.18;97.66
23659;BME280;12006;42.666;23.326;2023-03-13T01:28:15;8642.66;;;2.16;98.00
23659;BME280;12006;42.666;23.326;2023-03-13T01:30:41;8642.94;;;2.17;97.41
23659;BME280;12006;42.666;23.326;2023-03-13T01:33:06;8642.66;;;2.16;97.93
23659;BME280;12006;42.666;23.326;2023-03-13T01:35:32;9275.81;;;2.14;96.43
23659;BME280;12006;42.666;23.326;2023-03-13T01:37:57;9592.31;;;2.12;96.10
23659;BME280;12006;42.666;23.326;2023-03-13T01:40:22;9907.66;;;2.05;96.72
23659;BME280;12006;42.666;23.326;2023-03-13T01:42:55;9907.84;;;2.06;96.42
23659;BME280;12006;42.666;23.326;2023-03-13T01:48:17;9589.94;;;2.01;97.66
23659;BME280;12006;42.666;23.326;2023-03-13T01:50:43;9588.19;;;1.92;99.21
23659;BME280;12006;42.666;23.326;2023-03-13T01:53:09;9271.81;;;1.94;98.68
23659;BME280;12006;42.666;23.326;2023-03-13T01:55:34;9270.72;;;1.88;99.82
23659;BME280;12006;42.666;23.326;2023-03-13T01:58:00;8637.91;;;1.91;99.86
23659;BME280;12006;42.666;23.326;2023-03-13T02:00:31;8005.00;;;1.92;100.00
23659;BME280;12006;42.666;23.326;2023-03-13T02:03:02;8003.03;;;1.81;100.00
23659;BME280;12006;42.666;23.326;2023-03-13T02:05:30;6106.13;;;1.93;100.00
23659;BME280;12006;42.666;23.326;2023-03-13T02:08:02;6738.53;;;1.90;100.00
23659;BME280;12006;42.666;23.326;2023-03-13T02:10:31;6421.03;;;1.83;100.00
23659;BME280;12006;42.666;23.326;2023-03-13T02:12:59;5470.66;;;1.74;100.00
23659;BME280;12006;42.666;23.326;2023-03-13T02:15:27;3257.38;;;1.73;100.00
23659;BME280;12006;42.666;23.326;2023-03-13T02:17:54;1993.75;;;1.79;100.00
23659;BME280;12006;42.666;23.326;2023-03-13T02:20:21;729.97;;;1.80;100.00
23659;BME280;12006;42.666;23.326;2023-03-13T02:23:08;1044.84;;;1.64;100.00
23659;BME280;12006;42.666;23.326;2023-03-13T02:25:46;1360.81;;;1.66;100.00
23659;BME280;12006;42.666;23.326;2023-03-13T02:28:18;1360.75;;;1.65;100.00
23659;BME280;12006;42.666;23.326;2023-03-13T02:30:46;1044.69;;;1.62;100.00
23659;BME280;12006;42.666;23.326;2023-03-13T02:33:13;728.78;;;1.60;100.00
23659;BME280;12006;42.666;23.326;2023-03-13T02:35:39;413.03;;;1.61;100.00
23659;BME280;12006;42.666;23.326;2023-03-13T02:38:09;412.44;;;1.50;100.00
23659;BME280;12006;42.666;23.326;2023-03-13T02:40:41;-1166.22;;;1.38;100.00
23659;BME280;12006;42.666;23.326;2023-03-13T02:43:12;-2743.59;;;1.37;100.00
23659;BME280;12006;42.666;23.326;2023-03-13T02:45:39;-4005.00;;;1.37;100.00
23659;BME280;12006;42.666;23.326;2023-03-13T02:48:05;-4320.31;;;1.38;100.00
23659;BME280;12006;42.666;23.326;2023-03-13T02:50:31;-4004.94;;;1.34;100.00
23659;BME280;12006;42.666;23.326;2023-03-13T02:53:00;-4004.84;;;1.30;100.00
23659;BME280;12006;42.666;23.326;2023-03-13T02:55:31;-3374.19;;;1.20;100.00
23659;BME280;12006;42.666;23.326;2023-03-13T02:57:59;-4004.72;;;1.23;100.00
23659;BME280;12006;42.666;23.326;2023-03-13T03:00:24;-4004.34;;;1.04;100.00
23659;BME280;12006;42.666;23.326;2023-03-13T03:02:52;-5264.31;;;0.96;100.00
23659;BME280;12006;42.666;23.326;2023-03-13T03:05:19;-5894.91;;;1.10;100.00
23659;BME280;12006;42.666;23.326;2023-03-13T03:07:46;-6210.25;;;1.16;100.00
23659;BME280;12006;42.666;23.326;2023-03-13T03:10:12;-6839.59;;;1.07;100.00
23659;BME280;12006;42.666;23.326;2023-03-13T03:12:37;-7784.38;;;1.09;100.00
23659;BME280;12006;42.666;23.326;2023-03-13T03:15:03;-8729.06;;;1.12;100.00
23659;BME280;12006;42.666;23.326;2023-03-13T03:17:29;-7470.75;;;1.24;100.00
23659;BME280;12006;42.666;23.326;2023-03-13T03:19:55;-4950.31;;;1.24;100.00
23659;BME280;12006;42.666;23.326;2023-03-13T03:22:21;-4634.97;;;1.18;100.00
23659;BME280;12006;42.666;23.326;2023-03-13T03:24:46;-4319.84;;;1.20;100.00
23659;BME280;12006;42.666;23.326;2023-03-13T03:27:12;-3689.28;;;1.10;100.00
23659;BME280;12006;42.666;23.326;2023-03-13T03:29:37;-3373.94;;;0.95;100.00
23659;BME280;12006;42.666;23.326;2023-03-13T03:32:02;-5263.78;;;0.83;100.00
23659;BME280;12006;42.666;23.326;2023-03-13T03:34:28;-8097.03;;;0.84;100.00
23659;BME280;12006;42.666;23.326;2023-03-13T03:36:53;-9355.13;;;0.80;100.00
23659;BME280;12006;42.666;23.326;2023-03-13T03:39:18;-10299.56;;;0.87;100.00
23659;BME280;12006;42.666;23.326;2023-03-13T03:41:44;-10930.28;;;1.00;100.00
23659;BME280;12006;42.666;23.326;2023-03-13T03:44:09;-10931.75;;;1.11;100.00
23659;BME280;12006;42.666;23.326;2023-03-13T03:46:35;-10303.13;;;1.16;100.00
23659;BME280;12006;42.666;23.326;2023-03-13T03:49:00;-9042.91;;;1.03;100.00
23659;BME280;12006;42.666;23.326;2023-03-13T03:51:25;-8727.84;;;0.99;100.00
23659;BME280;12006;42.666;23.326;2023-03-13T03:53:51;-9670.00;;;0.83;100.00
23659;BME280;12006;42.666;23.326;2023-03-13T03:56:17;-10298.75;;;0.80;100.00
23659;BME280;12006;42.666;23.326;2023-03-13T03:58:42;-11556.63;;;0.81;100.00
23659;BME280;12006;42.666;23.326;2023-03-13T04:01:08;-12500.31;;;0.85;100.00
23659;BME280;12006;42.666;23.326;2023-03-13T04:03:33;-11558.13;;;0.92;100.00
23659;BME280;12006;42.666;23.326;2023-03-13T04:05:59;-11558.44;;;0.94;100.00
23659;BME280;12006;42.666;23.326;2023-03-13T04:08:24;-10614.44;;;0.90;100.00
23659;BME280;12006;42.666;23.326;2023-03-13T04:10:50;-9669.50;;;0.78;100.00
23659;BME280;12006;42.666;23.326;2023-03-13T04:13:15;-10612.00;;;0.71;100.00
23659;BME280;12006;42.666;23.326;2023-03-13T04:15:41;-11868.31;;;0.63;100.00
23659;BME280;12006;42.666;23.326;2023-03-13T04:18:06;-12496.66;;;0.62;100.00
23659;BME280;12006;42.666;23.326;2023-03-13T04:20:31;-13125.19;;;0.63;100.00
23659;BME280;12006;42.666;23.326;2023-03-13T04:22:57;-12812.16;;;0.70;100.00
23659;BME280;12006;42.666;23.326;2023-03-13T04:25:22;-12811.19;;;0.64;100.00
23659;BME280;12006;42.666;23.326;2023-03-13T04:27:48;-13439.25;;;0.63;100.00
23659;BME280;12006;42.666;23.326;2023-03-13T04:30:13;-14067.19;;;0.61;100.00
23659;BME280;12006;42.666;23.326;2023-03-13T04:32:39;-13123.41;;;0.53;100.00
23659;BME280;12006;42.666;23.326;2023-03-13T04:35:04;-12807.47;;;0.42;100.00
23659;BME280;12006;42.666;23.326;2023-03-13T04:37:30;-13119.34;;;0.29;100.00
23659;BME280;12006;42.666;23.326;2023-03-13T04:39:55;-13431.66;;;0.20;100.00
23659;BME280;12006;42.666;23.326;2023-03-13T04:42:21;-14058.03;;;0.12;100.00
23659;BME280;12006;42.666;23.326;2023-03-13T04:44:46;-14370.22;;;0.04;100.00
23659;BME280;12006;42.666;23.326;2023-03-13T04:47:12;-14998.19;;;0.06;100.00
23659;BME280;12006;42.666;23.326;2023-03-13T04:49:37;-15310.63;;;0.00;100.00
23659;BME280;12006;42.666;23.326;2023-03-13T04:52:03;-15623.66;;;-0.02;100.00
23659;BME280;12006;42.666;23.326;2023-03-13T04:54:28;-16248.84;;;-0.11;100.00
23659;BME280;12006;42.666;23.326;2023-03-13T04:56:54;-16877.34;;;-0.05;100.00
23659;BME280;12006;42.666;23.326;2023-03-13T04:59:19;-17818.81;;;-0.01;100.00
23659;BME280;12006;42.666;23.326;2023-03-13T05:01:44;-18761.03;;;0.07;100.00
23659;BME280;12006;42.666;23.326;2023-03-13T05:04:10;-19393.94;;;0.29;100.00
23659;BME280;12006;42.666;23.326;2023-03-13T05:06:36;-19398.56;;;0.46;100.00
23659;BME280;12006;42.666;23.326;2023-03-13T05:09:02;-19087.28;;;0.55;100.00
23659;BME280;12006;42.666;23.326;2023-03-13T05:11:28;-18775.88;;;0.63;100.00
23659;BME280;12006;42.666;23.326;2023-03-13T05:13:53;-18467.16;;;0.82;100.00
23659;BME280;12006;42.666;23.326;2023-03-13T05:16:19;-17211.31;;;0.81;100.00
23659;BME280;12006;42.666;23.326;2023-03-13T05:18:44;-16267.88;;;0.74;100.00
23659;BME280;12006;42.666;23.326;2023-03-13T05:21:10;-15954.88;;;0.78;100.00
23659;BME280;12006;42.666;23.326;2023-03-13T05:23:35;-15956.81;;;0.87;100.00
23659;BME280;12006;42.666;23.326;2023-03-13T05:26:01;-15643.38;;;0.90;100.00
23659;BME280;12006;42.666;23.326;2023-03-13T05:28:26;-15330.72;;;0.97;100.00
23659;BME280;12006;42.666;23.326;2023-03-13T05:30:52;-15329.78;;;0.93;100.00
23659;BME280;12006;42.666;23.326;2023-03-13T05:33:18;-15331.63;;;1.02;100.00
23659;BME280;12006;42.666;23.326;2023-03-13T05:35:45;-15022.06;;;1.24;100.00
23659;BME280;12006;42.666;23.326;2023-03-13T05:38:11;-14394.22;;;1.29;100.00
23659;BME280;12006;42.666;23.326;2023-03-13T05:40:36;-14393.34;;;1.24;100.00
23659;BME280;12006;42.666;23.326;2023-03-13T05:43:02;-14398.19;;;1.50;100.00
23659;BME280;12006;42.666;23.326;2023-03-13T05:45:28;-12828.44;;;1.69;100.00
23659;BME280;12006;42.666;23.326;2023-03-13T05:47:53;-12828.19;;;1.67;100.00
23659;BME280;12006;42.666;23.326;2023-03-13T05:50:18;-13144.78;;;1.78;100.00
23659;BME280;12006;42.666;23.326;2023-03-13T05:52:44;-12515.13;;;1.78;100.00
23659;BME280;12006;42.666;23.326;2023-03-13T05:55:09;-12203.06;;;1.95;100.00
23659;BME280;12006;42.666;23.326;2023-03-13T05:57:35;-11887.16;;;1.89;100.00
23659;BME280;12006;42.666;23.326;2023-03-13T06:00:00;-11574.59;;;2.05;100.00
23659;BME280;12006;42.666;23.326;2023-03-13T06:02:26;-10631.03;;;2.18;100.00
23659;BME280;12006;42.666;23.326;2023-03-13T06:04:52;-10317.19;;;2.29;100.00
23659;BME280;12006;42.666;23.326;2023-03-13T06:07:17;-10002.03;;;2.30;100.00
23659;BME280;12006;42.666;23.326;2023-03-13T06:09:42;-10004.63;;;2.52;100.00
23659;BME280;12006;42.666;23.326;2023-03-13T06:12:09;-9060.16;;;2.70;100.00
23659;BME280;12006;42.666;23.326;2023-03-13T06:14:35;-9059.75;;;2.66;100.00
23659;BME280;12006;42.666;23.326;2023-03-13T06:17:02;-6534.75;;;2.71;100.00
23659;BME280;12006;42.666;23.326;2023-03-13T06:19:28;-3691.69;;;2.81;100.00
23659;BME280;12006;42.666;23.326;2023-03-13T06:21:53;-2427.19;;;2.75;100.00
23659;BME280;12006;42.666;23.326;2023-03-13T06:24:18;-3059.50;;;2.86;100.00
23659;BME280;12006;42.666;23.326;2023-03-13T06:26:44;-2427.16;;;2.83;100.00
23659;BME280;12006;42.666;23.326;2023-03-13T06:29:12;-1794.66;;;2.86;100.00
23659;BME280;12006;42.666;23.326;2023-03-13T06:31:37;-1162.16;;;2.83;100.00
23659;BME280;12006;42.666;23.326;2023-03-13T06:34:02;-1478.66;;;2.74;100.00
23659;BME280;12006;42.666;23.326;2023-03-13T06:36:28;-1794.75;;;2.80;100.00
23659;BME280;12006;42.666;23.326;2023-03-13T06:38:53;-2427.09;;;2.89;100.00
23659;BME280;12006;42.666;23.326;2023-03-13T06:41:18;-2426.97;;;3.08;100.00
23659;BME280;12006;42.666;23.326;2023-03-13T06:43:44;-2110.56;;;3.13;100.00
23659;BME280;12006;42.666;23.326;2023-03-13T06:46:18;-845.22;;;3.01;97.72
23659;BME280;12006;42.666;23.326;2023-03-13T06:48:44;-845.06;;;3.07;98.84
23659;BME280;12006;42.666;23.326;2023-03-13T06:51:11;-1161.38;;;3.10;97.85
23659;BME280;12006;42.666;23.326;2023-03-13T06:53:37;-1161.19;;;3.18;97.08
23659;BME280;12006;42.666;23.326;2023-03-13T06:56:02;-1161.13;;;3.20;97.73
23659;BME280;12006;42.666;23.326;2023-03-13T06:58:28;-1793.91;;;3.27;100.00
23659;BME280;12006;42.666;23.326;2023-03-13T07:00:53;-2110.09;;;3.49;96.83
23659;BME280;12006;42.666;23.326;2023-03-13T07:03:18;-2109.97;;;3.59;95.33
23659;BME280;12006;42.666;23.326;2023-03-13T07:05:44;-2426.59;;;3.57;94.88
23659;BME280;12006;42.666;23.326;2023-03-13T07:08:09;-2426.44;;;3.77;93.62
23659;BME280;12006;42.666;23.326;2023-03-13T07:10:35;-1793.06;;;3.74;92.59
23659;BME280;12006;42.666;23.326;2023-03-13T07:13:00;-1793.16;;;3.69;92.63
23659;BME280;12006;42.666;23.326;2023-03-13T07:15:25;-1476.75;;;3.56;94.65
23659;BME280;12006;42.666;23.326;2023-03-13T07:17:51;-1476.72;;;3.58;94.01
23659;BME280;12006;42.666;23.326;2023-03-13T07:20:16;-1793.19;;;3.67;94.77
23659;BME280;12006;42.666;23.326;2023-03-13T07:22:41;-2109.75;;;3.77;93.79
23659;BME280;12006;42.666;23.326;2023-03-13T07:25:07;-1793.00;;;3.77;93.77
23659;BME280;12006;42.666;23.326;2023-03-13T07:27:33;-2426.38;;;3.85;93.86
23659;BME280;12006;42.666;23.326;2023-03-13T07:29:59;-2426.56;;;3.61;92.19
23659;BME280;12006;42.666;23.326;2023-03-13T07:32:24;-2426.25;;;4.00;91.35
23659;BME280;12006;42.666;23.326;2023-03-13T07:34:49;-2109.50;;;3.96;90.32
23659;BME280;12006;42.666;23.326;2023-03-13T07:37:15;-1792.97;;;3.79;92.84
23659;BME280;12006;42.666;23.326;2023-03-13T07:39:42;-2109.63;;;3.86;93.71
23659;BME280;12006;42.666;23.326;2023-03-13T07:42:11;-2109.34;;;4.07;89.11
23659;BME280;12006;42.666;23.326;2023-03-13T07:44:37;-2109.38;;;4.06;88.14
23659;BME280;12006;42.666;23.326;2023-03-13T07:47:02;-1792.50;;;4.06;87.53
23659;BME280;12006;42.666;23.326;2023-03-13T07:49:28;-1792.63;;;3.99;89.89
23659;BME280;12006;42.666;23.326;2023-03-13T07:51:53;-2743.03;;;4.10;92.33
23659;BME280;12006;42.666;23.326;2023-03-13T07:54:19;-3376.66;;;4.13;93.57
23659;BME280;12006;42.666;23.326;2023-03-13T07:56:44;-2743.00;;;4.20;90.30
23659;BME280;12006;42.666;23.326;2023-03-13T07:59:10;-3059.88;;;4.21;91.61
23659;BME280;12006;42.666;23.326;2023-03-13T08:01:35;-3376.84;;;4.36;91.49
23659;BME280;12006;42.666;23.326;2023-03-13T08:04:01;-3376.78;;;4.29;91.83
23659;BME280;12006;42.666;23.326;2023-03-13T08:06:29;-4010.69;;;4.40;92.54
23659;BME280;12006;42.666;23.326;2023-03-13T08:08:58;-4645.06;;;4.62;92.11
23659;BME280;12006;42.666;23.326;2023-03-13T08:11:25;-4328.41;;;4.75;87.02
23659;BME280;12006;42.666;23.326;2023-03-13T08:13:54;-4962.91;;;4.89;88.39
23659;BME280;12006;42.666;23.326;2023-03-13T08:16:31;-4962.81;;;4.86;89.12
23659;BME280;12006;42.666;23.326;2023-03-13T08:18:59;-4962.66;;;4.81;89.75
23659;BME280;12006;42.666;23.326;2023-03-13T08:21:30;-5280.28;;;4.97;89.99
23659;BME280;12006;42.666;23.326;2023-03-13T08:23:57;-6232.63;;;5.20;88.91
23659;BME280;12006;42.666;23.326;2023-03-13T08:26:25;-6551.16;;;5.43;86.21
23659;BME280;12006;42.666;23.326;2023-03-13T08:28:53;-6869.44;;;5.60;85.03
23659;BME280;12006;42.666;23.326;2023-03-13T08:31:24;-5916.75;;;5.45;84.67
23659;BME280;12006;42.666;23.326;2023-03-13T08:33:50;-6234.72;;;5.58;83.36
23659;BME280;12006;42.666;23.326;2023-03-13T08:36:21;-5917.28;;;5.56;81.50
23659;BME280;12006;42.666;23.326;2023-03-13T08:38:48;-5599.16;;;5.38;82.24
23659;BME280;12006;42.666;23.326;2023-03-13T08:41:16;-5916.94;;;5.49;85.05
23659;BME280;12006;42.666;23.326;2023-03-13T08:43:43;-5916.94;;;5.49;84.56
23659;BME280;12006;42.666;23.326;2023-03-13T08:46:08;-6552.41;;;5.64;85.05
23659;BME280;12006;42.666;23.326;2023-03-13T08:48:34;-6553.25;;;5.78;81.50
23659;BME280;12006;42.666;23.326;2023-03-13T08:51:04;-6553.28;;;5.79;80.73
23659;BME280;12006;42.666;23.326;2023-03-13T08:53:31;-6553.56;;;5.84;81.25
23659;BME280;12006;42.666;23.326;2023-03-13T08:55:56;-6553.47;;;5.82;79.85
23659;BME280;12006;42.666;23.326;2023-03-13T08:58:22;-6871.97;;;5.99;80.38
23659;BME280;12006;42.666;23.326;2023-03-13T09:00:47;-6872.22;;;6.03;78.61
23659;BME280;12006;42.666;23.326;2023-03-13T09:03:13;-6872.66;;;6.09;77.55
23659;BME280;12006;42.666;23.326;2023-03-13T09:05:38;-6236.78;;;5.96;78.13
23659;BME280;12006;42.666;23.326;2023-03-13T09:08:04;-6554.69;;;6.03;78.92
23659;BME280;12006;42.666;23.326;2023-03-13T09:10:32;-6554.88;;;6.05;78.02
23659;BME280;12006;42.666;23.326;2023-03-13T09:12:57;-6872.75;;;6.11;79.02
23659;BME280;12006;42.666;23.326;2023-03-13T09:15:22;-7508.69;;;6.23;79.56
23659;BME280;12006;42.666;23.326;2023-03-13T09:17:48;-7509.63;;;6.35;77.56
23659;BME280;12006;42.666;23.326;2023-03-13T09:20:13;-8146.88;;;6.59;76.03
23659;BME280;12006;42.666;23.326;2023-03-13T09:22:39;-8466.34;;;6.79;74.94
23659;BME280;12006;42.666;23.326;2023-03-13T09:25:04;-9103.56;;;6.96;75.65
23659;BME280;12006;42.666;23.326;2023-03-13T09:27:30;-9423.16;;;7.13;74.20
23659;BME280;12006;42.666;23.326;2023-03-13T09:29:55;-8787.78;;;7.17;71.44
23659;BME280;12006;42.666;23.326;2023-03-13T09:32:21;-9106.06;;;7.21;72.62
23659;BME280;12006;42.666;23.326;2023-03-13T09:34:46;-8469.47;;;7.13;70.80
23659;BME280;12006;42.666;23.326;2023-03-13T09:37:12;-9425.41;;;7.34;74.42
23659;BME280;12006;42.666;23.326;2023-03-13T09:39:37;-9745.22;;;7.50;72.67
23659;BME280;12006;42.666;23.326;2023-03-13T09:42:16;-10384.19;;;7.75;71.64
23659;BME280;12006;42.666;23.326;2023-03-13T09:45:05;-10705.78;;;8.02;70.47
23659;BME280;12006;42.666;23.326;2023-03-13T09:47:45;-11664.03;;;8.28;70.38
23659;BME280;12006;42.666;23.326;2023-03-13T09:50:26;-12305.50;;;8.60;69.23
23659;BME280;12006;42.666;23.326;2023-03-13T09:52:56;-12945.25;;;8.78;68.31
23659;BME280;12006;42.666;23.326;2023-03-13T09:55:28;-11669.84;;;8.68;64.60
23659;BME280;12006;42.666;23.326;2023-03-13T09:58:12;-11989.34;;;8.75;66.90
23659;BME280;12006;42.666;23.326;2023-03-13T10:00:42;-12309.69;;;8.87;65.06
23659;BME280;12006;42.666;23.326;2023-03-13T10:03:38;-12631.03;;;9.05;65.61
23659;BME280;12006;42.666;23.326;2023-03-13T10:06:24;-11031.59;;;8.59;63.17
23659;BME280;12006;42.666;23.326;2023-03-13T10:08:49;-10391.69;;;8.36;64.33
23659;BME280;12006;42.666;23.326;2023-03-13T10:11:26;-10392.13;;;8.40;65.23
23659;BME280;12006;42.666;23.326;2023-03-13T10:14:01;-11031.09;;;8.55;66.05
23659;BME280;12006;42.666;23.326;2023-03-13T10:16:43;-11353.16;;;8.82;63.87
23659;BME280;12006;42.666;23.326;2023-03-13T10:19:14;-12631.13;;;9.05;66.74
23659;BME280;12006;42.666;23.326;2023-03-13T10:21:42;-12633.31;;;9.19;62.98
23659;BME280;12006;42.666;23.326;2023-03-13T10:26:40;-12633.53;;;9.21;64.26
23659;BME280;12006;42.666;23.326;2023-03-13T10:29:22;-12635.81;;;9.35;62.85
23659;BME280;12006;42.666;23.326;2023-03-13T10:31:59;-13277.09;;;9.58;62.96
23659;BME280;12006;42.666;23.326;2023-03-13T10:34:28;-13599.34;;;9.77;60.60
23659;BME280;12006;42.666;23.326;2023-03-13T10:36:58;-13920.13;;;9.88;61.88
23659;BME280;12006;42.666;23.326;2023-03-13T10:39:25;-13281.25;;;9.82;60.58
23659;BME280;12006;42.666;23.326;2023-03-13T10:41:57;-12960.00;;;9.68;60.63
23659;BME280;12006;42.666;23.326;2023-03-13T10:44:31;-12960.00;;;9.68;60.77
23659;BME280;12006;42.666;23.326;2023-03-13T10:46:59;-12639.34;;;9.58;59.75
23659;BME280;12006;42.666;23.326;2023-03-13T10:49:25;-12957.34;;;9.52;61.99
23659;BME280;12006;42.666;23.326;2023-03-13T10:51:56;-12958.47;;;9.59;60.39
23659;BME280;12006;42.666;23.326;2023-03-13T10:54:23;-13279.41;;;9.71;60.77
23659;BME280;12006;42.666;23.326;2023-03-13T10:56:50;-13281.25;;;9.82;60.38
23659;BME280;12006;42.666;23.326;2023-03-13T10:59:24;-13282.50;;;9.90;59.79
23659;BME280;12006;42.666;23.326;2023-03-13T11:01:52;-13282.75;;;9.91;59.79
23659;BME280;12006;42.666;23.326;2023-03-13T11:04:20;-13925.00;;;10.15;59.31
23659;BME280;12006;42.666;23.326;2023-03-13T11:06:50;-14246.44;;;10.28;59.38
23659;BME280;12006;42.666;23.326;2023-03-13T11:09:19;-14569.31;;;10.48;59.70
23659;BME280;12006;42.666;23.326;2023-03-13T11:11:55;-14570.06;;;10.52;59.06
23659;BME280;12006;42.666;23.326;2023-03-13T11:14:25;-14891.41;;;10.63;58.21
23659;BME280;12006;42.666;23.326;2023-03-13T11:24:48;-14571.38;;;10.59;58.02
23659;BME280;12006;42.666;23.326;2023-03-13T11:32:51;-14571.38;;;10.59;57.47
23659;BME280;12006;42.666;23.326;2023-03-13T11:35:46;-14892.84;;;10.70;58.17
23659;BME280;12006;42.666;23.326;2023-03-13T11:38:18;-15537.56;;;11.00;56.92
23659;BME280;12006;42.666;23.326;2023-03-13T11:49:11;-16184.66;;;11.39;57.10
23659;BME280;12006;42.666;23.326;2023-03-13T11:57:38;-16187.97;;;11.54;56.19
23659;BME280;12006;42.666;23.326;2023-03-13T12:02:50;-16508.78;;;11.60;56.70
23659;BME280;12006;42.666;23.326;2023-03-13T12:05:19;-16187.53;;;11.52;55.90
23659;BME280;12006;42.666;23.326;2023-03-13T12:07:53;-16187.22;;;11.51;55.78
23659;BME280;12006;42.666;23.326;2023-03-13T12:10:37;-16510.97;;;11.70;54.88
23659;BME280;12006;42.666;23.326;2023-03-13T12:16:26;-15867.69;;;11.51;54.53
23659;BME280;12006;42.666;23.326;2023-03-13T12:18:58;-15544.78;;;11.36;54.48
23659;BME280;12006;42.666;23.326;2023-03-13T12:21:52;-15865.50;;;11.41;55.52
23659;BME280;12006;42.666;23.326;2023-03-13T12:24:28;-16185.72;;;11.44;56.83
23659;BME280;12006;42.666;23.326;2023-03-13T12:27:12;-15865.28;;;11.40;55.35
23659;BME280;12006;42.666;23.326;2023-03-13T12:32:23;-14577.56;;;10.91;55.13
23659;BME280;12006;42.666;23.326;2023-03-13T12:35:03;-14575.78;;;10.82;56.87
23659;BME280;12006;42.666;23.326;2023-03-13T12:37:44;-14896.41;;;10.88;57.19
23659;BME280;12006;42.666;23.326;2023-03-13T12:56:52;-14897.56;;;10.94;56.60
23659;BME280;12006;42.666;23.326;2023-03-13T12:59:26;-14577.09;;;10.89;56.80
23659;BME280;12006;42.666;23.326;2023-03-13T13:01:54;-14576.91;;;10.88;56.84
23659;BME280;12006;42.666;23.326;2023-03-13T13:04:26;-14576.06;;;10.84;57.90
23659;BME280;12006;42.666;23.326;2023-03-13T13:07:06;-14898.06;;;10.97;57.38
23659;BME280;12006;42.666;23.326;2023-03-13T13:12:40;-14900.56;;;11.10;55.59
23659;BME280;12006;42.666;23.326;2023-03-13T13:15:22;-14900.06;;;11.07;56.04
23659;BME280;12006;42.666;23.326;2023-03-13T13:17:54;-14577.75;;;10.92;54.93
23659;BME280;12006;42.666;23.326;2023-03-13T13:20:46;-14578.88;;;10.98;55.60
23659;BME280;12006;42.666;23.326;2023-03-13T13:23:38;-14576.16;;;10.84;57.57
23659;BME280;12006;42.666;23.326;2023-03-13T13:28:56;-14577.66;;;10.92;56.65
23659;BME280;12006;42.666;23.326;2023-03-13T13:36:56;-14899.97;;;11.07;56.20
23659;BME280;12006;42.666;23.326;2023-03-13T13:39:48;-14899.50;;;11.04;57.07
23659;BME280;12006;42.666;23.326;2023-03-13T13:47:39;-14902.78;;;11.21;55.04
23659;BME280;12006;42.666;23.326;2023-03-13T13:50:24;-15222.22;;;11.21;55.38
23659;BME280;12006;42.666;23.326;2023-03-13T13:52:51;-14900.66;;;11.10;55.70
23659;BME280;12006;42.666;23.326;2023-03-13T13:58:12;-14900.25;;;11.08;54.49
23659;BME280;12006;42.666;23.326;2023-03-13T14:00:51;-14902.38;;;11.19;55.01
23659;BME280;12006;42.666;23.326;2023-03-13T14:03:29;-14580.38;;;11.06;55.49
23659;BME280;12006;42.666;23.326;2023-03-13T14:06:00;-14901.03;;;11.12;55.28
23659;BME280;12006;42.666;23.326;2023-03-13T14:08:32;-14900.84;;;11.11;54.74
23659;BME280;12006;42.666;23.326;2023-03-13T14:13:39;-14904.03;;;11.28;54.40
23659;BME280;12006;42.666;23.326;2023-03-13T14:16:31;-14903.53;;;11.25;54.69
23659;BME280;12006;42.666;23.326;2023-03-13T14:18:57;-14903.44;;;11.25;54.17
23659;BME280;12006;42.666;23.326;2023-03-13T14:21:23;-14902.78;;;11.21;55.09
23659;BME280;12006;42.666;23.326;2023-03-13T14:23:49;-14900.06;;;11.07;56.33